sensor_id;sensor_type;location;lat;lon;timestamp;P1;durP1;ratioP1;P2;durP2;ratioP2
37455;SDS011;23316;50.718;7.328;2023-03-01T00:01:38;14.40;;;6.97;;
37455;SDS011;23316;50.718;7.328;2023-03-01T00:04:06;14.55;;;7.45;;
37455;SDS011;23316;50.718;7.328;2023-03-01T00:06:33;12.48;;;6.60;;
37455;SDS011;23316;50.718;7.328;2023-03-01T00:09:00;11.48;;;7.00;;
37455;SDS011;23316;50.718;7.328;2023-03-01T00:11:30;10.88;;;7.03;;
37455;SDS011;23316;50.718;7.328;2023-03-01T00:13:59;15.98;;;7.60;;
37455;SDS011;23316;50.718;7.328;2023-03-01T00:16:30;11.80;;;7.00;;
37455;SDS011;23316;50.718;7.328;2023-03-01T00:18:59;12.13;;;6.97;;
37455;SDS011;23316;50.718;7.328;2023-03-01T00:21:27;14.18;;;6.75;;
37455;SDS011;23316;50.718;7.328;2023-03-01T00:23:55;14.48;;;7.18;;
37455;SDS011;23316;50.718;7.328;2023-03-01T00:26:23;13.10;;;7.30;;
37455;SDS011;23316;50.718;7.328;2023-03-01T00:28:53;15.60;;;8.13;;
37455;SDS011;23316;50.718;7.328;2023-03-01T00:31:22;15.43;;;7.90;;
37455;SDS011;23316;50.718;7.328;2023-03-01T00:33:52;16.05;;;7.85;;
37455;SDS011;23316;50.718;7.328;2023-03-01T00:36:22;16.35;;;7.72;;
37455;SDS011;23316;50.718;7.328;2023-03-01T00:38:51;13.43;;;7.72;;
37455;SDS011;23316;50.718;7.328;2023-03-01T00:41:19;14.23;;;7.22;;
37455;SDS011;23316;50.718;7.328;2023-03-01T00:43:48;14.65;;;7.63;;
37455;SDS011;23316;50.718;7.328;2023-03-01T00:46:18;14.18;;;8.10;;
37455;SDS011;23316;50.718;7.328;2023-03-01T00:48:47;25.92;;;8.32;;
37455;SDS011;23316;50.718;7.328;2023-03-01T00:51:15;13.32;;;7.43;;
37455;SDS011;23316;50.718;7.328;2023-03-01T00:53:44;15.07;;;8.40;;
37455;SDS011;23316;50.718;7.328;2023-03-01T00:56:12;11.43;;;6.70;;
37455;SDS011;23316;50.718;7.328;2023-03-01T00:58:41;10.80;;;7.00;;
37455;SDS011;23316;50.718;7.328;2023-03-01T01:01:09;14.05;;;7.70;;
37455;SDS011;23316;50.718;7.328;2023-03-01T01:03:44;14.82;;;7.63;;
37455;SDS011;23316;50.718;7.328;2023-03-01T01:06:13;13.10;;;7.05;;
37455;SDS011;23316;50.718;7.328;2023-03-01T01:08:42;14.07;;;8.68;;
37455;SDS011;23316;50.718;7.328;2023-03-01T01:11:09;14.73;;;8.00;;
37455;SDS011;23316;50.718;7.328;2023-03-01T01:13:37;16.15;;;7.85;;
37455;SDS011;23316;50.718;7.328;2023-03-01T01:16:05;15.15;;;8.25;;
37455;SDS011;23316;50.718;7.328;2023-03-01T01:18:32;16.38;;;7.80;;
37455;SDS011;23316;50.718;7.328;2023-03-01T01:21:04;15.15;;;7.70;;
37455;SDS011;23316;50.718;7.328;2023-03-01T01:23:32;12.95;;;6.88;;
37455;SDS011;23316;50.718;7.328;2023-03-01T01:26:03;13.32;;;8.07;;
37455;SDS011;23316;50.718;7.328;2023-03-01T01:28:31;15.18;;;7.68;;
37455;SDS011;23316;50.718;7.328;2023-03-01T01:30:58;14.50;;;7.90;;
37455;SDS011;23316;50.718;7.328;2023-03-01T01:33:26;13.43;;;7.75;;
37455;SDS011;23316;50.718;7.328;2023-03-01T01:35:53;14.52;;;7.75;;
37455;SDS011;23316;50.718;7.328;2023-03-01T01:38:22;12.75;;;7.20;;
37455;SDS011;23316;50.718;7.328;2023-03-01T01:40:49;12.20;;;7.38;;
37455;SDS011;23316;50.718;7.328;2023-03-01T01:43:18;12.13;;;7.25;;
37455;SDS011;23316;50.718;7.328;2023-03-01T01:45:47;13.00;;;7.28;;
37455;SDS011;23316;50.718;7.328;2023-03-01T01:48:16;15.98;;;7.60;;
37455;SDS011;23316;50.718;7.328;2023-03-01T01:50:47;11.05;;;6.53;;
37455;SDS011;23316;50.718;7.328;2023-03-01T01:53:18;13.45;;;7.75;;
37455;SDS011;23316;50.718;7.328;2023-03-01T01:55:49;13.75;;;8.15;;
37455;SDS011;23316;50.718;7.328;2023-03-01T01:58:22;15.27;;;8.18;;
37455;SDS011;23316;50.718;7.328;2023-03-01T02:00:53;16.80;;;7.65;;
37455;SDS011;23316;50.718;7.328;2023-03-01T02:03:22;20.77;;;7.97;;
37455;SDS011;23316;50.718;7.328;2023-03-01T02:05:56;14.57;;;7.18;;
37455;SDS011;23316;50.718;7.328;2023-03-01T02:08:28;16.67;;;7.80;;
37455;SDS011;23316;50.718;7.328;2023-03-01T02:10:59;17.73;;;8.43;;
37455;SDS011;23316;50.718;7.328;2023-03-01T02:13:30;15.00;;;7.22;;
37455;SDS011;23316;50.718;7.328;2023-03-01T02:15:58;14.65;;;7.72;;
37455;SDS011;23316;50.718;7.328;2023-03-01T02:18:26;15.27;;;8.25;;
37455;SDS011;23316;50.718;7.328;2023-03-01T02:21:00;13.98;;;7.60;;
37455;SDS011;23316;50.718;7.328;2023-03-01T02:23:34;14.50;;;7.85;;
37455;SDS011;23316;50.718;7.328;2023-03-01T02:26:05;14.95;;;8.05;;
37455;SDS011;23316;50.718;7.328;2023-03-01T02:28:38;15.13;;;8.13;;
37455;SDS011;23316;50.718;7.328;2023-03-01T02:31:09;16.90;;;8.32;;
37455;SDS011;23316;50.718;7.328;2023-03-01T02:33:55;12.73;;;7.60;;
37455;SDS011;23316;50.718;7.328;2023-03-01T02:36:24;17.08;;;8.63;;
37455;SDS011;23316;50.718;7.328;2023-03-01T02:38:54;12.60;;;7.72;;
37455;SDS011;23316;50.718;7.328;2023-03-01T02:41:24;15.52;;;7.60;;
37455;SDS011;23316;50.718;7.328;2023-03-01T02:43:55;14.23;;;7.75;;
37455;SDS011;23316;50.718;7.328;2023-03-01T02:46:23;13.75;;;7.30;;
37455;SDS011;23316;50.718;7.328;2023-03-01T02:48:52;12.85;;;7.70;;
37455;SDS011;23316;50.718;7.328;2023-03-01T02:54:15;13.98;;;8.65;;
37455;SDS011;23316;50.718;7.328;2023-03-01T02:56:48;16.73;;;8.38;;
37455;SDS011;23316;50.718;7.328;2023-03-01T02:59:18;21.95;;;9.85;;
37455;SDS011;23316;50.718;7.328;2023-03-01T03:01:47;24.02;;;11.32;;
37455;SDS011;23316;50.718;7.328;2023-03-01T03:04:16;19.02;;;9.50;;
37455;SDS011;23316;50.718;7.328;2023-03-01T03:06:45;16.73;;;9.23;;
37455;SDS011;23316;50.718;7.328;2023-03-01T03:09:13;14.15;;;7.85;;
37455;SDS011;23316;50.718;7.328;2023-03-01T03:11:41;16.15;;;8.80;;
37455;SDS011;23316;50.718;7.328;2023-03-01T03:14:09;13.50;;;8.43;;
37455;SDS011;23316;50.718;7.328;2023-03-01T03:16:40;15.80;;;8.85;;
37455;SDS011;23316;50.718;7.328;2023-03-01T03:19:08;14.23;;;8.25;;
37455;SDS011;23316;50.718;7.328;2023-03-01T03:21:36;14.48;;;8.40;;
37455;SDS011;23316;50.718;7.328;2023-03-01T03:24:03;17.50;;;8.85;;
37455;SDS011;23316;50.718;7.328;2023-03-01T03:26:31;16.92;;;8.80;;
37455;SDS011;23316;50.718;7.328;2023-03-01T03:28:58;19.52;;;9.77;;
37455;SDS011;23316;50.718;7.328;2023-03-01T03:31:26;15.80;;;9.15;;
37455;SDS011;23316;50.718;7.328;2023-03-01T03:33:55;18.45;;;9.50;;
37455;SDS011;23316;50.718;7.328;2023-03-01T03:36:24;15.57;;;9.02;;
37455;SDS011;23316;50.718;7.328;2023-03-01T03:38:52;16.27;;;9.35;;
37455;SDS011;23316;50.718;7.328;2023-03-01T03:41:19;16.75;;;9.27;;
37455;SDS011;23316;50.718;7.328;2023-03-01T03:43:46;16.98;;;9.70;;
37455;SDS011;23316;50.718;7.328;2023-03-01T03:46:14;17.08;;;9.30;;
37455;SDS011;23316;50.718;7.328;2023-03-01T03:48:43;18.98;;;10.10;;
37455;SDS011;23316;50.718;7.328;2023-03-01T03:51:14;19.40;;;10.07;;
37455;SDS011;23316;50.718;7.328;2023-03-01T03:53:43;16.23;;;8.80;;
37455;SDS011;23316;50.718;7.328;2023-03-01T03:56:11;13.65;;;8.40;;
37455;SDS011;23316;50.718;7.328;2023-03-01T03:58:38;15.27;;;9.40;;
37455;SDS011;23316;50.718;7.328;2023-03-01T04:01:06;16.73;;;8.60;;
37455;SDS011;23316;50.718;7.328;2023-03-01T04:03:33;17.00;;;9.82;;
37455;SDS011;23316;50.718;7.328;2023-03-01T04:06:01;16.45;;;8.65;;
37455;SDS011;23316;50.718;7.328;2023-03-01T04:08:30;16.90;;;9.98;;
37455;SDS011;23316;50.718;7.328;2023-03-01T04:10:59;16.73;;;9.60;;
37455;SDS011;23316;50.718;7.328;2023-03-01T04:13:47;17.65;;;9.05;;
37455;SDS011;23316;50.718;7.328;2023-03-01T04:16:15;15.20;;;8.43;;
37455;SDS011;23316;50.718;7.328;2023-03-01T04:18:43;15.93;;;9.25;;
37455;SDS011;23316;50.718;7.328;2023-03-01T04:21:10;16.95;;;9.30;;
37455;SDS011;23316;50.718;7.328;2023-03-01T04:23:39;15.52;;;8.95;;
37455;SDS011;23316;50.718;7.328;2023-03-01T04:26:07;16.75;;;9.30;;
37455;SDS011;23316;50.718;7.328;2023-03-01T04:28:36;15.85;;;8.90;;
37455;SDS011;23316;50.718;7.328;2023-03-01T04:31:06;18.33;;;10.20;;
37455;SDS011;23316;50.718;7.328;2023-03-01T04:33:39;15.70;;;9.00;;
37455;SDS011;23316;50.718;7.328;2023-03-01T04:36:08;14.45;;;9.38;;
37455;SDS011;23316;50.718;7.328;2023-03-01T04:38:39;21.17;;;10.15;;
37455;SDS011;23316;50.718;7.328;2023-03-01T04:41:08;17.05;;;9.80;;
37455;SDS011;23316;50.718;7.328;2023-03-01T04:43:37;20.55;;;10.20;;
37455;SDS011;23316;50.718;7.328;2023-03-01T04:46:05;17.65;;;10.30;;
37455;SDS011;23316;50.718;7.328;2023-03-01T04:48:34;16.88;;;9.45;;
37455;SDS011;23316;50.718;7.328;2023-03-01T04:51:02;16.92;;;10.13;;
37455;SDS011;23316;50.718;7.328;2023-03-01T04:53:31;16.75;;;9.25;;
37455;SDS011;23316;50.718;7.328;2023-03-01T04:56:00;17.17;;;9.77;;
37455;SDS011;23316;50.718;7.328;2023-03-01T04:58:27;20.70;;;10.65;;
37455;SDS011;23316;50.718;7.328;2023-03-01T05:00:55;18.40;;;9.90;;
37455;SDS011;23316;50.718;7.328;2023-03-01T05:03:22;14.93;;;9.15;;
37455;SDS011;23316;50.718;7.328;2023-03-01T05:05:50;19.38;;;9.82;;
37455;SDS011;23316;50.718;7.328;2023-03-01T05:08:18;17.85;;;10.40;;
37455;SDS011;23316;50.718;7.328;2023-03-01T05:10:46;17.15;;;10.30;;
37455;SDS011;23316;50.718;7.328;2023-03-01T05:13:17;17.30;;;9.50;;
37455;SDS011;23316;50.718;7.328;2023-03-01T05:15:47;22.77;;;12.05;;
37455;SDS011;23316;50.718;7.328;2023-03-01T05:18:15;18.98;;;9.98;;
37455;SDS011;23316;50.718;7.328;2023-03-01T05:20:42;17.98;;;10.57;;
37455;SDS011;23316;50.718;7.328;2023-03-01T05:23:10;19.23;;;10.00;;
37455;SDS011;23316;50.718;7.328;2023-03-01T05:25:37;20.85;;;11.23;;
37455;SDS011;23316;50.718;7.328;2023-03-01T05:28:06;21.27;;;10.40;;
37455;SDS011;23316;50.718;7.328;2023-03-01T05:30:38;20.48;;;11.30;;
37455;SDS011;23316;50.718;7.328;2023-03-01T05:33:05;18.38;;;10.02;;
37455;SDS011;23316;50.718;7.328;2023-03-01T05:35:39;19.08;;;11.52;;
37455;SDS011;23316;50.718;7.328;2023-03-01T05:38:07;19.23;;;10.30;;
37455;SDS011;23316;50.718;7.328;2023-03-01T05:40:35;18.52;;;9.90;;
37455;SDS011;23316;50.718;7.328;2023-03-01T05:43:02;19.65;;;10.65;;
37455;SDS011;23316;50.718;7.328;2023-03-01T05:45:31;19.90;;;11.40;;
37455;SDS011;23316;50.718;7.328;2023-03-01T05:48:00;17.58;;;11.10;;
37455;SDS011;23316;50.718;7.328;2023-03-01T05:50:28;19.35;;;10.55;;
37455;SDS011;23316;50.718;7.328;2023-03-01T05:52:57;17.92;;;10.73;;
37455;SDS011;23316;50.718;7.328;2023-03-01T05:55:26;15.95;;;9.68;;
37455;SDS011;23316;50.718;7.328;2023-03-01T05:57:54;17.90;;;10.80;;
37455;SDS011;23316;50.718;7.328;2023-03-01T06:00:22;21.70;;;11.77;;
37455;SDS011;23316;50.718;7.328;2023-03-01T06:02:49;21.58;;;11.88;;
37455;SDS011;23316;50.718;7.328;2023-03-01T06:05:18;19.65;;;11.32;;
37455;SDS011;23316;50.718;7.328;2023-03-01T06:07:46;20.88;;;11.57;;
37455;SDS011;23316;50.718;7.328;2023-03-01T06:10:13;21.83;;;11.27;;
37455;SDS011;23316;50.718;7.328;2023-03-01T06:12:41;20.20;;;11.40;;
37455;SDS011;23316;50.718;7.328;2023-03-01T06:15:10;19.38;;;10.82;;
37455;SDS011;23316;50.718;7.328;2023-03-01T06:17:39;18.30;;;11.07;;
37455;SDS011;23316;50.718;7.328;2023-03-01T06:20:08;22.33;;;10.85;;
37455;SDS011;23316;50.718;7.328;2023-03-01T06:22:40;17.40;;;10.07;;
37455;SDS011;23316;50.718;7.328;2023-03-01T06:25:08;21.45;;;11.60;;
37455;SDS011;23316;50.718;7.328;2023-03-01T06:27:36;24.67;;;12.13;;
37455;SDS011;23316;50.718;7.328;2023-03-01T06:30:04;22.05;;;11.10;;
37455;SDS011;23316;50.718;7.328;2023-03-01T06:32:33;19.48;;;10.02;;
37455;SDS011;23316;50.718;7.328;2023-03-01T06:35:00;22.67;;;12.57;;
37455;SDS011;23316;50.718;7.328;2023-03-01T06:37:28;20.08;;;11.23;;
37455;SDS011;23316;50.718;7.328;2023-03-01T06:39:56;19.80;;;10.93;;
37455;SDS011;23316;50.718;7.328;2023-03-01T06:42:23;17.02;;;10.48;;
37455;SDS011;23316;50.718;7.328;2023-03-01T06:44:51;17.48;;;10.52;;
37455;SDS011;23316;50.718;7.328;2023-03-01T06:47:18;20.77;;;11.55;;
37455;SDS011;23316;50.718;7.328;2023-03-01T06:49:45;22.83;;;11.70;;
37455;SDS011;23316;50.718;7.328;2023-03-01T06:52:12;20.33;;;11.73;;
37455;SDS011;23316;50.718;7.328;2023-03-01T06:54:40;21.80;;;11.68;;
37455;SDS011;23316;50.718;7.328;2023-03-01T06:57:08;23.65;;;11.52;;
37455;SDS011;23316;50.718;7.328;2023-03-01T06:59:35;18.15;;;10.32;;
37455;SDS011;23316;50.718;7.328;2023-03-01T07:02:03;21.00;;;10.77;;
37455;SDS011;23316;50.718;7.328;2023-03-01T07:04:30;18.75;;;10.30;;
37455;SDS011;23316;50.718;7.328;2023-03-01T07:06:57;22.85;;;12.13;;
37455;SDS011;23316;50.718;7.328;2023-03-01T07:09:24;19.17;;;10.88;;
37455;SDS011;23316;50.718;7.328;2023-03-01T07:11:52;20.38;;;10.75;;
37455;SDS011;23316;50.718;7.328;2023-03-01T07:14:20;23.95;;;11.10;;
37455;SDS011;23316;50.718;7.328;2023-03-01T07:16:50;19.02;;;11.35;;
37455;SDS011;23316;50.718;7.328;2023-03-01T07:19:17;18.10;;;11.05;;
37455;SDS011;23316;50.718;7.328;2023-03-01T07:21:44;19.75;;;11.20;;
37455;SDS011;23316;50.718;7.328;2023-03-01T07:24:11;18.20;;;10.35;;
37455;SDS011;23316;50.718;7.328;2023-03-01T07:26:39;19.88;;;11.65;;
37455;SDS011;23316;50.718;7.328;2023-03-01T07:29:07;22.10;;;11.50;;
37455;SDS011;23316;50.718;7.328;2023-03-01T07:31:37;21.35;;;11.93;;
37455;SDS011;23316;50.718;7.328;2023-03-01T07:34:04;21.60;;;12.15;;
37455;SDS011;23316;50.718;7.328;2023-03-01T07:36:31;29.13;;;12.38;;
37455;SDS011;23316;50.718;7.328;2023-03-01T07:38:58;21.13;;;10.85;;
37455;SDS011;23316;50.718;7.328;2023-03-01T07:41:28;22.88;;;11.73;;
37455;SDS011;23316;50.718;7.328;2023-03-01T07:43:59;23.65;;;12.02;;
37455;SDS011;23316;50.718;7.328;2023-03-01T07:46:58;21.95;;;11.18;;
37455;SDS011;23316;50.718;7.328;2023-03-01T07:49:31;23.65;;;11.55;;
37455;SDS011;23316;50.718;7.328;2023-03-01T07:53:10;23.10;;;12.57;;
37455;SDS011;23316;50.718;7.328;2023-03-01T07:59:20;19.73;;;11.35;;
37455;SDS011;23316;50.718;7.328;2023-03-01T08:02:09;23.02;;;11.50;;
37455;SDS011;23316;50.718;7.328;2023-03-01T08:04:36;20.38;;;11.55;;
37455;SDS011;23316;50.718;7.328;2023-03-01T08:07:04;22.30;;;11.52;;
37455;SDS011;23316;50.718;7.328;2023-03-01T08:09:33;21.25;;;12.07;;
37455;SDS011;23316;50.718;7.328;2023-03-01T08:12:01;25.48;;;12.90;;
37455;SDS011;23316;50.718;7.328;2023-03-01T08:14:30;19.88;;;12.10;;
37455;SDS011;23316;50.718;7.328;2023-03-01T08:16:57;19.58;;;11.27;;
37455;SDS011;23316;50.718;7.328;2023-03-01T08:19:26;21.92;;;12.00;;
37455;SDS011;23316;50.718;7.328;2023-03-01T08:21:53;23.52;;;11.98;;
37455;SDS011;23316;50.718;7.328;2023-03-01T08:24:23;25.02;;;12.63;;
37455;SDS011;23316;50.718;7.328;2023-03-01T08:26:50;25.08;;;12.23;;
37455;SDS011;23316;50.718;7.328;2023-03-01T08:29:18;23.23;;;12.25;;
37455;SDS011;23316;50.718;7.328;2023-03-01T08:31:45;23.38;;;12.30;;
37455;SDS011;23316;50.718;7.328;2023-03-01T08:34:13;23.77;;;12.30;;
37455;SDS011;23316;50.718;7.328;2023-03-01T08:36:43;26.63;;;13.93;;
37455;SDS011;23316;50.718;7.328;2023-03-01T08:39:12;25.02;;;13.93;;
37455;SDS011;23316;50.718;7.328;2023-03-01T08:41:42;29.05;;;14.90;;
37455;SDS011;23316;50.718;7.328;2023-03-01T08:44:09;21.38;;;13.35;;
37455;SDS011;23316;50.718;7.328;2023-03-01T08:46:38;22.85;;;13.10;;
37455;SDS011;23316;50.718;7.328;2023-03-01T08:49:07;22.90;;;13.45;;
37455;SDS011;23316;50.718;7.328;2023-03-01T08:51:35;22.33;;;13.40;;
37455;SDS011;23316;50.718;7.328;2023-03-01T08:54:05;23.83;;;12.85;;
37455;SDS011;23316;50.718;7.328;2023-03-01T08:56:33;20.10;;;12.43;;
37455;SDS011;23316;50.718;7.328;2023-03-01T08:59:00;22.48;;;13.20;;
37455;SDS011;23316;50.718;7.328;2023-03-01T09:01:28;24.15;;;12.35;;
37455;SDS011;23316;50.718;7.328;2023-03-01T09:03:55;24.45;;;13.65;;
37455;SDS011;23316;50.718;7.328;2023-03-01T09:06:22;24.85;;;13.43;;
37455;SDS011;23316;50.718;7.328;2023-03-01T09:08:50;21.48;;;11.73;;
37455;SDS011;23316;50.718;7.328;2023-03-01T09:11:19;25.50;;;12.77;;
37455;SDS011;23316;50.718;7.328;2023-03-01T09:13:48;21.45;;;12.55;;
37455;SDS011;23316;50.718;7.328;2023-03-01T09:16:17;21.73;;;11.63;;
37455;SDS011;23316;50.718;7.328;2023-03-01T09:18:48;22.45;;;11.48;;
37455;SDS011;23316;50.718;7.328;2023-03-01T09:21:16;23.00;;;11.20;;
37455;SDS011;23316;50.718;7.328;2023-03-01T09:23:46;21.48;;;11.55;;
37455;SDS011;23316;50.718;7.328;2023-03-01T09:26:15;24.98;;;12.55;;
37455;SDS011;23316;50.718;7.328;2023-03-01T09:28:46;25.85;;;12.07;;
37455;SDS011;23316;50.718;7.328;2023-03-01T09:31:14;23.35;;;12.02;;
37455;SDS011;23316;50.718;7.328;2023-03-01T09:33:45;22.23;;;12.35;;
37455;SDS011;23316;50.718;7.328;2023-03-01T09:36:14;23.05;;;12.55;;
37455;SDS011;23316;50.718;7.328;2023-03-01T09:38:42;19.90;;;10.85;;
37455;SDS011;23316;50.718;7.328;2023-03-01T09:41:10;25.80;;;11.95;;
37455;SDS011;23316;50.718;7.328;2023-03-01T09:43:47;20.25;;;11.63;;
37455;SDS011;23316;50.718;7.328;2023-03-01T09:48:50;23.25;;;11.30;;
37455;SDS011;23316;50.718;7.328;2023-03-01T09:51:22;27.80;;;11.77;;
37455;SDS011;23316;50.718;7.328;2023-03-01T09:53:53;21.70;;;11.40;;
37455;SDS011;23316;50.718;7.328;2023-03-01T09:56:24;21.35;;;12.20;;
37455;SDS011;23316;50.718;7.328;2023-03-01T09:59:03;22.60;;;11.48;;
37455;SDS011;23316;50.718;7.328;2023-03-01T10:01:41;21.55;;;11.50;;
37455;SDS011;23316;50.718;7.328;2023-03-01T10:04:26;21.15;;;11.60;;
37455;SDS011;23316;50.718;7.328;2023-03-01T10:07:04;19.95;;;10.98;;
37455;SDS011;23316;50.718;7.328;2023-03-01T10:09:39;21.08;;;11.02;;
37455;SDS011;23316;50.718;7.328;2023-03-01T10:12:09;18.95;;;10.93;;
37455;SDS011;23316;50.718;7.328;2023-03-01T10:14:43;19.00;;;11.23;;
37455;SDS011;23316;50.718;7.328;2023-03-01T10:17:19;24.98;;;12.00;;
37455;SDS011;23316;50.718;7.328;2023-03-01T10:19:54;19.38;;;10.45;;
37455;SDS011;23316;50.718;7.328;2023-03-01T10:22:23;19.00;;;10.32;;
37455;SDS011;23316;50.718;7.328;2023-03-01T10:24:54;21.33;;;11.65;;
37455;SDS011;23316;50.718;7.328;2023-03-01T10:27:24;22.00;;;11.88;;
37455;SDS011;23316;50.718;7.328;2023-03-01T10:29:59;19.15;;;11.30;;
37455;SDS011;23316;50.718;7.328;2023-03-01T10:32:36;23.88;;;11.77;;
37455;SDS011;23316;50.718;7.328;2023-03-01T10:35:14;21.45;;;10.80;;
37455;SDS011;23316;50.718;7.328;2023-03-01T10:37:46;20.38;;;12.07;;
37455;SDS011;23316;50.718;7.328;2023-03-01T10:40:24;19.77;;;11.13;;
37455;SDS011;23316;50.718;7.328;2023-03-01T10:42:51;22.65;;;11.55;;
37455;SDS011;23316;50.718;7.328;2023-03-01T10:45:32;17.00;;;10.35;;
37455;SDS011;23316;50.718;7.328;2023-03-01T10:48:05;19.08;;;10.85;;
37455;SDS011;23316;50.718;7.328;2023-03-01T10:50:39;22.77;;;10.13;;
37455;SDS011;23316;50.718;7.328;2023-03-01T10:53:09;23.80;;;11.35;;
37455;SDS011;23316;50.718;7.328;2023-03-01T10:55:49;21.92;;;10.95;;
37455;SDS011;23316;50.718;7.328;2023-03-01T10:58:24;20.30;;;11.65;;
37455;SDS011;23316;50.718;7.328;2023-03-01T11:00:53;15.70;;;9.68;;
37455;SDS011;23316;50.718;7.328;2023-03-01T11:03:23;18.67;;;9.98;;
37455;SDS011;23316;50.718;7.328;2023-03-01T11:05:56;18.85;;;9.65;;
37455;SDS011;23316;50.718;7.328;2023-03-01T11:08:35;17.25;;;9.25;;
37455;SDS011;23316;50.718;7.328;2023-03-01T11:11:13;18.38;;;9.90;;
37455;SDS011;23316;50.718;7.328;2023-03-01T11:13:57;20.15;;;11.43;;
37455;SDS011;23316;50.718;7.328;2023-03-01T11:16:28;21.25;;;10.00;;
37455;SDS011;23316;50.718;7.328;2023-03-01T11:19:00;17.75;;;9.55;;
37455;SDS011;23316;50.718;7.328;2023-03-01T11:21:41;17.83;;;9.65;;
37455;SDS011;23316;50.718;7.328;2023-03-01T11:24:14;17.63;;;9.48;;
37455;SDS011;23316;50.718;7.328;2023-03-01T11:26:43;16.25;;;9.60;;
37455;SDS011;23316;50.718;7.328;2023-03-01T11:29:16;16.70;;;9.23;;
37455;SDS011;23316;50.718;7.328;2023-03-01T11:31:53;15.57;;;9.45;;
37455;SDS011;23316;50.718;7.328;2023-03-01T11:34:27;19.30;;;9.32;;
37455;SDS011;23316;50.718;7.328;2023-03-01T11:37:03;22.60;;;10.23;;
37455;SDS011;23316;50.718;7.328;2023-03-01T11:39:39;18.52;;;10.23;;
37455;SDS011;23316;50.718;7.328;2023-03-01T11:42:11;20.13;;;10.90;;
37455;SDS011;23316;50.718;7.328;2023-03-01T11:44:41;18.05;;;9.50;;
37455;SDS011;23316;50.718;7.328;2023-03-01T11:47:16;15.57;;;9.13;;
37455;SDS011;23316;50.718;7.328;2023-03-01T11:50:03;14.25;;;7.88;;
37455;SDS011;23316;50.718;7.328;2023-03-01T11:52:48;20.13;;;8.90;;
37455;SDS011;23316;50.718;7.328;2023-03-01T11:55:30;13.65;;;7.68;;
37455;SDS011;23316;50.718;7.328;2023-03-01T11:58:23;16.35;;;8.38;;
37455;SDS011;23316;50.718;7.328;2023-03-01T12:01:02;16.35;;;8.05;;
37455;SDS011;23316;50.718;7.328;2023-03-01T12:03:42;17.77;;;9.25;;
37455;SDS011;23316;50.718;7.328;2023-03-01T12:06:48;14.30;;;8.48;;
37455;SDS011;23316;50.718;7.328;2023-03-01T12:09:22;13.75;;;8.13;;
37455;SDS011;23316;50.718;7.328;2023-03-01T12:12:12;15.65;;;8.25;;
37455;SDS011;23316;50.718;7.328;2023-03-01T12:14:55;13.40;;;7.20;;
37455;SDS011;23316;50.718;7.328;2023-03-01T12:17:38;17.58;;;7.75;;
37455;SDS011;23316;50.718;7.328;2023-03-01T12:20:24;13.98;;;7.30;;
37455;SDS011;23316;50.718;7.328;2023-03-01T12:23:09;13.10;;;7.10;;
37455;SDS011;23316;50.718;7.328;2023-03-01T12:25:52;13.20;;;6.80;;
37455;SDS011;23316;50.718;7.328;2023-03-01T12:28:33;14.63;;;7.22;;
37455;SDS011;23316;50.718;7.328;2023-03-01T12:31:18;14.70;;;7.00;;
37455;SDS011;23316;50.718;7.328;2023-03-01T12:34:08;14.90;;;6.70;;
37455;SDS011;23316;50.718;7.328;2023-03-01T12:36:58;11.45;;;6.47;;
37455;SDS011;23316;50.718;7.328;2023-03-01T12:39:42;14.02;;;6.40;;
37455;SDS011;23316;50.718;7.328;2023-03-01T12:42:20;13.73;;;6.70;;
37455;SDS011;23316;50.718;7.328;2023-03-01T12:47:52;10.25;;;6.28;;
37455;SDS011;23316;50.718;7.328;2023-03-01T12:50:36;12.50;;;6.63;;
37455;SDS011;23316;50.718;7.328;2023-03-01T12:53:13;12.77;;;6.38;;
37455;SDS011;23316;50.718;7.328;2023-03-01T12:55:48;14.18;;;6.97;;
37455;SDS011;23316;50.718;7.328;2023-03-01T12:58:20;8.88;;;5.28;;
37455;SDS011;23316;50.718;7.328;2023-03-01T13:00:54;10.10;;;5.60;;
37455;SDS011;23316;50.718;7.328;2023-03-01T13:03:38;10.20;;;5.78;;
37455;SDS011;23316;50.718;7.328;2023-03-01T13:06:21;11.43;;;5.70;;
37455;SDS011;23316;50.718;7.328;2023-03-01T13:08:59;12.52;;;6.00;;
37455;SDS011;23316;50.718;7.328;2023-03-01T13:11:32;11.93;;;5.65;;
37455;SDS011;23316;50.718;7.328;2023-03-01T13:17:02;12.25;;;5.70;;
37455;SDS011;23316;50.718;7.328;2023-03-01T13:19:29;12.48;;;5.65;;
37455;SDS011;23316;50.718;7.328;2023-03-01T13:21:58;11.73;;;6.03;;
37455;SDS011;23316;50.718;7.328;2023-03-01T13:24:28;9.85;;;4.88;;
37455;SDS011;23316;50.718;7.328;2023-03-01T13:27:11;14.15;;;6.05;;
37455;SDS011;23316;50.718;7.328;2023-03-01T13:29:50;8.98;;;5.03;;
37455;SDS011;23316;50.718;7.328;2023-03-01T13:32:19;9.40;;;5.13;;
37455;SDS011;23316;50.718;7.328;2023-03-01T13:34:48;10.63;;;4.65;;
37455;SDS011;23316;50.718;7.328;2023-03-01T13:43:30;13.40;;;4.90;;
37455;SDS011;23316;50.718;7.328;2023-03-01T13:45:59;10.23;;;5.20;;
37455;SDS011;23316;50.718;7.328;2023-03-01T13:48:29;8.27;;;4.75;;
37455;SDS011;23316;50.718;7.328;2023-03-01T13:50:58;9.43;;;5.05;;
37455;SDS011;23316;50.718;7.328;2023-03-01T13:53:29;13.48;;;5.38;;
37455;SDS011;23316;50.718;7.328;2023-03-01T13:56:02;8.98;;;4.55;;
37455;SDS011;23316;50.718;7.328;2023-03-01T13:58:44;13.98;;;5.88;;
37455;SDS011;23316;50.718;7.328;2023-03-01T14:01:21;9.35;;;5.30;;
37455;SDS011;23316;50.718;7.328;2023-03-01T14:03:50;9.15;;;5.00;;
37455;SDS011;23316;50.718;7.328;2023-03-01T14:06:20;10.85;;;5.72;;
37455;SDS011;23316;50.718;7.328;2023-03-01T14:08:50;13.52;;;6.80;;
37455;SDS011;23316;50.718;7.328;2023-03-01T14:11:43;12.15;;;6.25;;
37455;SDS011;23316;50.718;7.328;2023-03-01T14:14:43;10.10;;;5.40;;
37455;SDS011;23316;50.718;7.328;2023-03-01T14:20:17;8.65;;;4.97;;
37455;SDS011;23316;50.718;7.328;2023-03-01T14:22:48;11.75;;;5.15;;
37455;SDS011;23316;50.718;7.328;2023-03-01T14:25:20;13.98;;;6.40;;
37455;SDS011;23316;50.718;7.328;2023-03-01T14:27:51;10.85;;;6.18;;
37455;SDS011;23316;50.718;7.328;2023-03-01T14:30:24;8.63;;;5.50;;
37455;SDS011;23316;50.718;7.328;2023-03-01T14:32:53;13.18;;;5.45;;
37455;SDS011;23316;50.718;7.328;2023-03-01T14:35:22;7.60;;;4.30;;
37455;SDS011;23316;50.718;7.328;2023-03-01T14:37:50;7.45;;;4.38;;
37455;SDS011;23316;50.718;7.328;2023-03-01T14:40:25;8.50;;;4.85;;
37455;SDS011;23316;50.718;7.328;2023-03-01T14:42:55;10.30;;;4.32;;
37455;SDS011;23316;50.718;7.328;2023-03-01T14:45:27;10.50;;;4.60;;
37455;SDS011;23316;50.718;7.328;2023-03-01T14:47:56;8.13;;;3.97;;
37455;SDS011;23316;50.718;7.328;2023-03-01T14:50:27;8.52;;;4.35;;
37455;SDS011;23316;50.718;7.328;2023-03-01T14:52:56;8.40;;;4.32;;
37455;SDS011;23316;50.718;7.328;2023-03-01T14:55:27;12.30;;;4.35;;
37455;SDS011;23316;50.718;7.328;2023-03-01T14:57:57;7.70;;;3.70;;
37455;SDS011;23316;50.718;7.328;2023-03-01T15:00:26;7.30;;;3.97;;
37455;SDS011;23316;50.718;7.328;2023-03-01T15:02:56;7.70;;;3.83;;
37455;SDS011;23316;50.718;7.328;2023-03-01T15:05:27;11.48;;;3.60;;
37455;SDS011;23316;50.718;7.328;2023-03-01T15:07:57;6.57;;;3.17;;
37455;SDS011;23316;50.718;7.328;2023-03-01T15:10:27;7.45;;;3.67;;
37455;SDS011;23316;50.718;7.328;2023-03-01T15:12:56;8.05;;;3.30;;
37455;SDS011;23316;50.718;7.328;2023-03-01T15:15:38;5.60;;;3.40;;
37455;SDS011;23316;50.718;7.328;2023-03-01T15:18:15;6.57;;;3.25;;
37455;SDS011;23316;50.718;7.328;2023-03-01T15:20:45;5.85;;;3.15;;